createdAt,value
2019-01-17T00:03:36.223Z,15.43
2019-01-17T00:08:55.860Z,17.33
2019-01-17T00:14:04.022Z,20.17
2019-01-17T00:19:25.204Z,20.67
2019-01-17T00:24:33.047Z,18.63
2019-01-17T00:29:40.855Z,23.70
2019-01-17T00:34:58.092Z,20.63
2019-01-17T00:40:11.865Z,17.47
2019-01-17T00:45:17.059Z,16.60
2019-01-17T00:50:36.737Z,20.40
2019-01-17T00:55:58.042Z,16.30
2019-01-17T01:01:20.810Z,20.33
2019-01-17T01:06:28.349Z,19.73
2019-01-17T01:11:35.852Z,21.63
2019-01-17T01:16:52.496Z,17.03
2019-01-17T01:22:00.253Z,14.63
2019-01-17T01:27:14.446Z,15.37
2019-01-17T01:32:31.435Z,16.43
2019-01-17T01:37:51.434Z,16.67
2019-01-17T01:43:02.265Z,20.90
2019-01-17T01:48:18.861Z,23.17
2019-01-17T01:53:22.285Z,22.20
2019-01-17T01:58:25.828Z,18.70
2019-01-17T02:03:29.268Z,18.80
2019-01-17T02:08:32.693Z,18.83
2019-01-17T02:13:36.399Z,17.93
2019-01-17T02:18:39.880Z,19.90
2019-01-17T02:23:43.342Z,20.23
2019-01-17T02:28:46.768Z,16.97
2019-01-17T02:33:50.211Z,16.70
2019-01-17T02:38:53.713Z,15.30
2019-01-17T02:43:57.210Z,16.00
2019-01-17T02:49:07.000Z,14.57
2019-01-17T02:54:10.530Z,13.27
2019-01-17T02:59:24.802Z,15.20
2019-01-17T03:04:34.790Z,15.67
2019-01-17T03:09:35.841Z,14.63
2019-01-17T03:14:41.922Z,14.83
2019-01-17T03:19:47.406Z,15.63
2019-01-17T03:24:56.028Z,13.23
2019-01-17T03:30:04.222Z,12.17
2019-01-17T03:35:07.902Z,12.53
2019-01-17T03:40:14.200Z,14.57
2019-01-17T03:45:20.357Z,13.90
2019-01-17T03:50:23.812Z,12.77
2019-01-17T03:55:27.564Z,9.60
2019-01-17T04:00:31.492Z,9.53
2019-01-17T04:05:34.998Z,11.57
2019-01-17T04:10:38.439Z,9.03
2019-01-17T04:15:41.875Z,9.07
2019-01-17T04:20:45.336Z,10.17
2019-01-17T04:25:50.296Z,7.93
2019-01-17T04:30:53.819Z,6.73
2019-01-17T04:35:57.223Z,6.77
2019-01-17T04:41:00.776Z,10.40
2019-01-17T04:46:04.323Z,12.13
2019-01-17T04:51:07.810Z,9.80
2019-01-17T04:56:11.311Z,9.90
2019-01-17T05:01:16.267Z,8.37
2019-01-17T05:06:19.775Z,14.37
2019-01-17T05:11:23.213Z,11.97
2019-01-17T05:16:26.647Z,12.20
2019-01-17T05:21:30.170Z,15.83
2019-01-17T05:26:33.682Z,16.50
2019-01-17T05:31:37.286Z,19.63
2019-01-17T05:36:40.726Z,15.80
2019-01-17T05:41:44.238Z,19.07
2019-01-17T05:46:47.770Z,14.83
2019-01-17T05:51:51.205Z,16.47
2019-01-17T05:56:54.626Z,19.50
2019-01-17T06:01:58.053Z,18.93
2019-01-17T06:07:01.518Z,17.47
2019-01-17T06:12:05.087Z,19.47
2019-01-17T06:17:08.676Z,18.20
2019-01-17T06:22:12.103Z,15.63
2019-01-17T06:27:15.603Z,15.67
2019-01-17T06:32:19.029Z,15.37
2019-01-17T06:37:22.487Z,16.53
2019-01-17T06:42:25.921Z,19.70
2019-01-17T06:47:29.377Z,16.70
2019-01-17T06:52:32.896Z,20.27
2019-01-17T06:57:36.425Z,23.00
2019-01-17T07:02:39.994Z,21.00
2019-01-17T07:07:43.548Z,21.97
2019-01-17T07:12:47.009Z,20.97
2019-01-17T07:17:50.538Z,23.27
2019-01-17T07:22:54.004Z,33.57
2019-01-17T07:27:59.555Z,24.40
2019-01-17T07:33:03.068Z,25.73
2019-01-17T07:38:06.737Z,25.00
2019-01-17T07:43:10.241Z,24.87
2019-01-17T07:48:13.662Z,26.43
2019-01-17T07:53:17.072Z,27.57
2019-01-17T07:58:20.495Z,25.57
2019-01-17T08:03:23.935Z,28.30
2019-01-17T08:08:27.382Z,27.93
2019-01-17T08:13:30.879Z,30.23
2019-01-17T08:18:34.338Z,31.87
2019-01-17T08:23:37.758Z,31.83
2019-01-17T08:28:41.249Z,30.40
2019-01-17T08:33:44.675Z,28.97
2019-01-17T08:38:48.804Z,32.63
2019-01-17T08:43:52.442Z,33.67
2019-01-17T08:48:56.058Z,42.20
2019-01-17T08:53:59.516Z,32.13
2019-01-17T08:59:02.962Z,34.03
2019-01-17T09:04:06.477Z,33.77
2019-01-17T09:09:09.913Z,35.20
2019-01-17T09:14:13.351Z,33.83
2019-01-17T09:19:16.779Z,31.47
2019-01-17T09:24:20.221Z,29.77
2019-01-17T09:29:23.759Z,26.03
2019-01-17T09:34:27.203Z,29.87
2019-01-17T09:39:30.637Z,27.17
2019-01-17T09:44:34.081Z,29.10
2019-01-17T09:49:37.521Z,30.60
2019-01-17T09:54:40.963Z,22.90
2019-01-17T09:59:44.405Z,22.80
2019-01-17T10:04:47.844Z,24.13
2019-01-17T10:09:51.263Z,22.90
2019-01-17T10:14:54.709Z,22.90
2019-01-17T10:20:06.805Z,22.47
2019-01-17T10:25:29.378Z,23.07
2019-01-17T10:30:35.863Z,18.23
2019-01-17T10:36:02.915Z,18.87
2019-01-17T10:41:12.271Z,15.70
2019-01-17T10:46:30.669Z,17.17
2019-01-17T10:51:45.922Z,14.20
2019-01-17T10:57:19.401Z,15.03
2019-01-17T11:02:40.641Z,12.70
2019-01-17T11:07:49.608Z,15.30
2019-01-17T11:13:04.991Z,17.37
2019-01-17T11:18:30.883Z,12.23
2019-01-17T11:23:37.376Z,13.07
2019-01-17T11:28:50.066Z,10.17
2019-01-17T11:34:05.594Z,9.60
2019-01-17T11:39:36.228Z,14.77
2019-01-17T11:44:42.986Z,10.03
2019-01-17T11:50:08.979Z,11.77
2019-01-17T11:55:15.759Z,7.73
2019-01-17T12:00:39.918Z,6.10
2019-01-17T12:05:43.331Z,6.03
2019-01-17T12:11:06.211Z,4.43
2019-01-17T12:16:11.450Z,9.83
2019-01-17T12:21:25.412Z,6.20
2019-01-17T12:26:36.885Z,8.17
2019-01-17T12:31:59.807Z,5.37
2019-01-17T12:37:24.497Z,5.10
2019-01-17T12:42:33.132Z,4.50
2019-01-17T12:47:37.512Z,4.47
2019-01-17T12:52:40.941Z,6.17
2019-01-17T12:57:44.361Z,5.33
2019-01-17T13:02:47.871Z,5.67
2019-01-17T13:07:51.299Z,5.03
2019-01-17T13:12:54.741Z,5.23
2019-01-17T13:17:58.171Z,4.40
2019-01-17T13:23:01.590Z,4.73
2019-01-17T13:28:05.148Z,6.10
2019-01-17T13:33:09.390Z,4.83
2019-01-17T13:38:12.805Z,4.73
2019-01-17T13:43:16.230Z,5.33
2019-01-17T13:48:19.667Z,4.43
2019-01-17T13:53:23.093Z,5.40
2019-01-17T13:58:26.545Z,5.63
2019-01-17T14:03:29.970Z,6.53
2019-01-17T14:08:33.406Z,5.57
2019-01-17T14:13:36.848Z,5.73
2019-01-17T14:18:40.277Z,6.10
2019-01-17T14:23:43.877Z,5.67
2019-01-17T14:28:47.294Z,6.40
2019-01-17T14:33:50.706Z,5.00
2019-01-17T14:38:54.134Z,6.03
2019-01-17T14:43:57.532Z,6.50
2019-01-17T14:49:00.945Z,6.40
2019-01-17T14:54:04.516Z,4.97
2019-01-17T14:59:07.943Z,5.97
2019-01-17T15:04:11.363Z,5.60
2019-01-17T15:09:14.808Z,5.80
2019-01-17T15:14:18.233Z,5.37
2019-01-17T15:19:21.656Z,6.00
2019-01-17T15:24:25.103Z,4.60
2019-01-17T15:29:28.514Z,3.97
2019-01-17T15:34:31.934Z,3.33
2019-01-17T15:39:35.362Z,3.93
2019-01-17T15:44:38.773Z,3.40
2019-01-17T15:49:42.215Z,5.23
2019-01-17T15:54:45.657Z,4.37
2019-01-17T15:59:49.087Z,2.97
2019-01-17T16:04:52.538Z,2.87
2019-01-17T16:09:55.968Z,5.17
2019-01-17T16:14:59.507Z,3.07
2019-01-17T16:20:03.383Z,5.43
2019-01-17T16:25:09.328Z,1.53
2019-01-17T16:30:27.438Z,3.30
2019-01-17T16:35:30.859Z,2.40
2019-01-17T16:40:34.274Z,6.40
2019-01-17T16:45:37.699Z,6.23
2019-01-17T16:50:41.127Z,3.30
2019-01-17T16:55:44.562Z,11.37
2019-01-17T17:00:48.287Z,6.43
2019-01-17T17:05:51.705Z,3.07
2019-01-17T17:10:55.224Z,5.60
2019-01-17T17:15:58.652Z,5.83
2019-01-17T17:21:02.081Z,9.17
2019-01-17T17:26:05.579Z,9.17
2019-01-17T17:31:08.991Z,9.53
2019-01-17T17:36:12.414Z,6.83
2019-01-17T17:41:15.837Z,4.03
2019-01-17T17:46:19.285Z,8.77
2019-01-17T17:51:22.727Z,4.83
2019-01-17T17:56:26.332Z,2.67
2019-01-17T18:01:30.031Z,11.50
2019-01-17T18:06:33.532Z,7.13
2019-01-17T18:11:37.045Z,11.07
2019-01-17T18:16:40.474Z,14.07
2019-01-17T18:21:43.904Z,9.83
2019-01-17T18:26:48.180Z,9.10
2019-01-17T18:31:51.681Z,9.30
2019-01-17T18:36:55.094Z,2.93
2019-01-17T18:41:58.687Z,4.17
2019-01-17T18:47:02.110Z,2.47
2019-01-17T18:52:05.526Z,5.33
2019-01-17T18:57:08.940Z,2.23
2019-01-17T19:02:12.357Z,2.40
2019-01-17T19:07:16.120Z,3.77
2019-01-17T19:12:19.622Z,4.27
2019-01-17T19:17:23.048Z,7.90
2019-01-17T19:22:26.469Z,7.17
2019-01-17T19:27:29.904Z,13.20
2019-01-17T19:32:34.266Z,7.47
2019-01-17T19:37:37.838Z,8.93
2019-01-17T19:42:41.255Z,13.27
2019-01-17T19:47:44.738Z,8.37
2019-01-17T19:52:48.531Z,10.90
2019-01-17T19:57:51.931Z,11.03
2019-01-17T20:02:55.387Z,7.60
2019-01-17T20:07:58.971Z,15.60
2019-01-17T20:13:02.481Z,16.40
2019-01-17T20:18:06.114Z,10.90
2019-01-17T20:23:09.538Z,10.93
2019-01-17T20:28:12.972Z,9.90
2019-01-17T20:33:16.397Z,7.90
2019-01-17T20:38:19.815Z,9.63
2019-01-17T20:43:23.310Z,11.30
2019-01-17T20:48:26.732Z,11.67
2019-01-17T20:53:30.157Z,9.07
2019-01-17T20:58:33.632Z,11.20
2019-01-17T21:03:37.136Z,7.27
2019-01-17T21:08:40.576Z,8.87
2019-01-17T21:13:44.017Z,8.50
2019-01-17T21:18:47.439Z,11.10
2019-01-17T21:23:50.858Z,10.80
2019-01-17T21:28:54.286Z,10.70
2019-01-17T21:33:57.812Z,15.03
2019-01-17T21:39:01.359Z,16.13
2019-01-17T21:44:04.996Z,7.83
2019-01-17T21:49:08.427Z,5.57
2019-01-17T21:54:11.866Z,6.10
2019-01-17T21:59:15.294Z,5.80
2019-01-17T22:04:18.704Z,5.80
2019-01-17T22:09:22.155Z,8.13
2019-01-17T22:14:25.581Z,11.80
2019-01-17T22:19:29.105Z,11.67
2019-01-17T22:24:32.518Z,6.77
2019-01-17T22:29:35.954Z,8.17
2019-01-17T22:34:39.467Z,7.83
2019-01-17T22:39:42.964Z,8.50
2019-01-17T22:44:46.470Z,7.73
2019-01-17T22:49:49.972Z,5.70
2019-01-17T22:54:53.389Z,5.87
2019-01-17T22:59:56.820Z,6.70
2019-01-17T23:05:00.270Z,11.20
2019-01-17T23:10:05.919Z,5.93
2019-01-17T23:15:09.624Z,8.70
2019-01-17T23:20:13.124Z,8.53
2019-01-17T23:25:16.618Z,6.37
2019-01-17T23:30:20.190Z,6.60
2019-01-17T23:35:23.608Z,4.60
2019-01-17T23:40:27.033Z,5.77
2019-01-17T23:45:30.446Z,9.87
2019-01-17T23:50:33.873Z,9.63
2019-01-17T23:55:37.313Z,5.87
